sensor_id;sensor_type;location;lat;lon;timestamp;P1;durP1;ratioP1;P2;durP2;ratioP2
69789;SDS011;57064;52.046;4.800;2023-07-28T00:00:11;14.43;;;5.85;;
69789;SDS011;57064;52.046;4.800;2023-07-28T00:02:37;14.60;;;7.15;;
69789;SDS011;57064;52.046;4.800;2023-07-28T00:05:03;10.07;;;6.55;;
69789;SDS011;57064;52.046;4.800;2023-07-28T00:07:29;14.25;;;6.30;;
69789;SDS011;57064;52.046;4.800;2023-07-28T00:09:58;11.40;;;7.28;;
69789;SDS011;57064;52.046;4.800;2023-07-28T00:12:25;14.90;;;6.63;;
69789;SDS011;57064;52.046;4.800;2023-07-28T00:14:51;15.32;;;7.43;;
69789;SDS011;57064;52.046;4.800;2023-07-28T00:17:17;16.65;;;8.02;;
69789;SDS011;57064;52.046;4.800;2023-07-28T00:19:43;13.98;;;7.55;;
69789;SDS011;57064;52.046;4.800;2023-07-28T00:22:09;14.48;;;7.20;;
69789;SDS011;57064;52.046;4.800;2023-07-28T00:24:35;15.68;;;7.55;;
69789;SDS011;57064;52.046;4.800;2023-07-28T00:27:01;16.98;;;7.55;;
69789;SDS011;57064;52.046;4.800;2023-07-28T00:29:27;14.63;;;7.95;;
69789;SDS011;57064;52.046;4.800;2023-07-28T00:31:53;15.30;;;8.02;;
69789;SDS011;57064;52.046;4.800;2023-07-28T00:34:19;16.95;;;6.80;;
69789;SDS011;57064;52.046;4.800;2023-07-28T00:36:46;15.07;;;7.95;;
69789;SDS011;57064;52.046;4.800;2023-07-28T00:39:12;23.08;;;7.63;;
69789;SDS011;57064;52.046;4.800;2023-07-28T00:41:38;17.33;;;8.35;;
69789;SDS011;57064;52.046;4.800;2023-07-28T00:44:04;14.85;;;7.47;;
69789;SDS011;57064;52.046;4.800;2023-07-28T00:46:30;16.33;;;7.80;;
69789;SDS011;57064;52.046;4.800;2023-07-28T00:48:58;18.83;;;7.65;;
69789;SDS011;57064;52.046;4.800;2023-07-28T00:51:24;19.73;;;7.60;;
69789;SDS011;57064;52.046;4.800;2023-07-28T00:53:50;17.13;;;7.65;;
69789;SDS011;57064;52.046;4.800;2023-07-28T00:56:18;19.45;;;8.93;;
69789;SDS011;57064;52.046;4.800;2023-07-28T00:58:45;17.20;;;7.90;;
69789;SDS011;57064;52.046;4.800;2023-07-28T01:01:12;19.35;;;7.25;;
69789;SDS011;57064;52.046;4.800;2023-07-28T01:03:38;19.05;;;8.57;;
69789;SDS011;57064;52.046;4.800;2023-07-28T01:06:10;16.95;;;8.40;;
69789;SDS011;57064;52.046;4.800;2023-07-28T01:11:31;20.98;;;8.77;;
69789;SDS011;57064;52.046;4.800;2023-07-28T01:13:57;20.73;;;8.57;;
69789;SDS011;57064;52.046;4.800;2023-07-28T01:16:23;20.88;;;8.48;;
69789;SDS011;57064;52.046;4.800;2023-07-28T01:18:50;19.30;;;9.45;;
69789;SDS011;57064;52.046;4.800;2023-07-28T01:21:25;18.52;;;8.30;;
69789;SDS011;57064;52.046;4.800;2023-07-28T01:26:29;24.33;;;12.20;;
69789;SDS011;57064;52.046;4.800;2023-07-28T01:29:02;18.48;;;9.73;;
69789;SDS011;57064;52.046;4.800;2023-07-28T01:31:29;24.70;;;10.27;;
69789;SDS011;57064;52.046;4.800;2023-07-28T01:33:56;22.15;;;9.98;;
69789;SDS011;57064;52.046;4.800;2023-07-28T01:36:22;23.90;;;10.10;;
69789;SDS011;57064;52.046;4.800;2023-07-28T01:38:48;20.15;;;10.52;;
69789;SDS011;57064;52.046;4.800;2023-07-28T01:41:14;23.45;;;9.75;;
69789;SDS011;57064;52.046;4.800;2023-07-28T01:43:40;22.77;;;10.70;;
69789;SDS011;57064;52.046;4.800;2023-07-28T01:46:07;26.40;;;11.20;;
69789;SDS011;57064;52.046;4.800;2023-07-28T01:48:33;21.08;;;10.48;;
69789;SDS011;57064;52.046;4.800;2023-07-28T01:50:59;25.23;;;10.95;;
69789;SDS011;57064;52.046;4.800;2023-07-28T01:53:25;18.15;;;10.93;;
69789;SDS011;57064;52.046;4.800;2023-07-28T01:55:52;25.83;;;10.93;;
69789;SDS011;57064;52.046;4.800;2023-07-28T01:58:18;25.58;;;10.88;;
69789;SDS011;57064;52.046;4.800;2023-07-28T02:00:45;19.63;;;10.13;;
69789;SDS011;57064;52.046;4.800;2023-07-28T02:03:11;21.95;;;10.45;;
69789;SDS011;57064;52.046;4.800;2023-07-28T02:05:37;22.75;;;10.85;;
69789;SDS011;57064;52.046;4.800;2023-07-28T02:08:03;26.10;;;11.07;;
69789;SDS011;57064;52.046;4.800;2023-07-28T02:10:29;24.17;;;10.30;;
69789;SDS011;57064;52.046;4.800;2023-07-28T02:12:56;21.35;;;11.10;;
69789;SDS011;57064;52.046;4.800;2023-07-28T02:15:22;24.35;;;9.52;;
69789;SDS011;57064;52.046;4.800;2023-07-28T02:17:48;22.00;;;10.95;;
69789;SDS011;57064;52.046;4.800;2023-07-28T02:20:14;24.90;;;11.43;;
69789;SDS011;57064;52.046;4.800;2023-07-28T02:22:41;21.85;;;9.95;;
69789;SDS011;57064;52.046;4.800;2023-07-28T02:25:08;27.85;;;12.57;;
69789;SDS011;57064;52.046;4.800;2023-07-28T02:27:35;27.30;;;11.48;;
69789;SDS011;57064;52.046;4.800;2023-07-28T02:30:02;24.77;;;12.00;;
69789;SDS011;57064;52.046;4.800;2023-07-28T02:32:29;21.65;;;10.43;;
69789;SDS011;57064;52.046;4.800;2023-07-28T02:34:56;28.38;;;10.77;;
69789;SDS011;57064;52.046;4.800;2023-07-28T02:37:24;24.77;;;10.93;;
69789;SDS011;57064;52.046;4.800;2023-07-28T02:39:50;25.33;;;10.32;;
69789;SDS011;57064;52.046;4.800;2023-07-28T02:42:16;24.00;;;9.85;;
69789;SDS011;57064;52.046;4.800;2023-07-28T02:44:42;20.73;;;9.68;;
69789;SDS011;57064;52.046;4.800;2023-07-28T02:47:08;20.13;;;9.75;;
69789;SDS011;57064;52.046;4.800;2023-07-28T02:49:34;22.65;;;10.20;;
69789;SDS011;57064;52.046;4.800;2023-07-28T02:52:01;26.88;;;10.30;;
69789;SDS011;57064;52.046;4.800;2023-07-28T02:54:28;23.20;;;11.45;;
69789;SDS011;57064;52.046;4.800;2023-07-28T02:56:54;27.67;;;10.73;;
69789;SDS011;57064;52.046;4.800;2023-07-28T02:59:21;23.92;;;11.60;;
69789;SDS011;57064;52.046;4.800;2023-07-28T03:01:48;23.17;;;10.93;;
69789;SDS011;57064;52.046;4.800;2023-07-28T03:04:17;25.13;;;11.50;;
69789;SDS011;57064;52.046;4.800;2023-07-28T03:06:45;28.15;;;12.23;;
69789;SDS011;57064;52.046;4.800;2023-07-28T03:09:11;27.42;;;11.57;;
69789;SDS011;57064;52.046;4.800;2023-07-28T03:11:38;33.08;;;13.05;;
69789;SDS011;57064;52.046;4.800;2023-07-28T03:14:04;35.85;;;13.52;;
69789;SDS011;57064;52.046;4.800;2023-07-28T03:16:30;26.30;;;11.32;;
69789;SDS011;57064;52.046;4.800;2023-07-28T03:18:56;30.55;;;13.65;;
69789;SDS011;57064;52.046;4.800;2023-07-28T03:21:22;34.47;;;13.32;;
69789;SDS011;57064;52.046;4.800;2023-07-28T03:23:48;39.08;;;15.32;;
69789;SDS011;57064;52.046;4.800;2023-07-28T03:26:14;34.22;;;15.02;;
69789;SDS011;57064;52.046;4.800;2023-07-28T03:28:40;37.03;;;15.75;;
69789;SDS011;57064;52.046;4.800;2023-07-28T03:31:06;35.08;;;15.82;;
69789;SDS011;57064;52.046;4.800;2023-07-28T03:33:32;37.20;;;15.32;;
69789;SDS011;57064;52.046;4.800;2023-07-28T03:35:58;30.98;;;12.27;;
69789;SDS011;57064;52.046;4.800;2023-07-28T03:38:24;39.88;;;15.25;;
69789;SDS011;57064;52.046;4.800;2023-07-28T03:40:51;29.38;;;14.52;;
69789;SDS011;57064;52.046;4.800;2023-07-28T03:43:17;35.35;;;15.25;;
69789;SDS011;57064;52.046;4.800;2023-07-28T03:45:43;35.20;;;15.30;;
69789;SDS011;57064;52.046;4.800;2023-07-28T03:48:09;30.70;;;12.43;;
69789;SDS011;57064;52.046;4.800;2023-07-28T03:50:35;32.45;;;13.55;;
69789;SDS011;57064;52.046;4.800;2023-07-28T03:53:01;29.70;;;13.93;;
69789;SDS011;57064;52.046;4.800;2023-07-28T03:55:27;38.10;;;13.38;;
69789;SDS011;57064;52.046;4.800;2023-07-28T03:57:53;31.42;;;13.90;;
69789;SDS011;57064;52.046;4.800;2023-07-28T04:00:19;39.47;;;14.95;;
69789;SDS011;57064;52.046;4.800;2023-07-28T04:02:46;30.58;;;13.55;;
69789;SDS011;57064;52.046;4.800;2023-07-28T04:05:12;32.50;;;14.35;;
69789;SDS011;57064;52.046;4.800;2023-07-28T04:07:38;33.80;;;13.80;;
69789;SDS011;57064;52.046;4.800;2023-07-28T04:10:05;30.25;;;13.80;;
69789;SDS011;57064;52.046;4.800;2023-07-28T04:12:31;28.90;;;13.27;;
69789;SDS011;57064;52.046;4.800;2023-07-28T04:14:57;32.63;;;13.15;;
69789;SDS011;57064;52.046;4.800;2023-07-28T04:17:23;32.85;;;13.95;;
69789;SDS011;57064;52.046;4.800;2023-07-28T04:19:49;32.30;;;14.88;;
69789;SDS011;57064;52.046;4.800;2023-07-28T04:22:15;34.05;;;14.60;;
69789;SDS011;57064;52.046;4.800;2023-07-28T04:24:46;36.17;;;15.00;;
69789;SDS011;57064;52.046;4.800;2023-07-28T04:27:15;32.50;;;14.38;;
69789;SDS011;57064;52.046;4.800;2023-07-28T04:29:41;29.92;;;14.13;;
69789;SDS011;57064;52.046;4.800;2023-07-28T04:32:08;30.73;;;13.40;;
69789;SDS011;57064;52.046;4.800;2023-07-28T04:34:34;36.35;;;13.50;;
69789;SDS011;57064;52.046;4.800;2023-07-28T04:37:00;27.38;;;12.45;;
69789;SDS011;57064;52.046;4.800;2023-07-28T04:39:26;27.95;;;13.43;;
69789;SDS011;57064;52.046;4.800;2023-07-28T04:41:53;28.33;;;13.20;;
69789;SDS011;57064;52.046;4.800;2023-07-28T04:44:19;29.77;;;12.82;;
69789;SDS011;57064;52.046;4.800;2023-07-28T04:46:45;31.80;;;13.93;;
69789;SDS011;57064;52.046;4.800;2023-07-28T04:49:14;28.00;;;12.75;;
69789;SDS011;57064;52.046;4.800;2023-07-28T04:51:40;35.03;;;14.15;;
69789;SDS011;57064;52.046;4.800;2023-07-28T04:54:06;31.58;;;12.80;;
69789;SDS011;57064;52.046;4.800;2023-07-28T04:56:32;33.13;;;13.73;;
69789;SDS011;57064;52.046;4.800;2023-07-28T04:58:58;26.08;;;12.70;;
69789;SDS011;57064;52.046;4.800;2023-07-28T05:01:25;28.50;;;12.98;;
69789;SDS011;57064;52.046;4.800;2023-07-28T05:03:51;28.80;;;14.05;;
69789;SDS011;57064;52.046;4.800;2023-07-28T05:06:17;31.92;;;13.52;;
69789;SDS011;57064;52.046;4.800;2023-07-28T05:08:43;29.52;;;12.68;;
69789;SDS011;57064;52.046;4.800;2023-07-28T05:11:09;31.42;;;13.93;;
69789;SDS011;57064;52.046;4.800;2023-07-28T05:13:35;31.52;;;13.43;;
69789;SDS011;57064;52.046;4.800;2023-07-28T05:16:01;28.80;;;13.07;;
69789;SDS011;57064;52.046;4.800;2023-07-28T05:18:27;27.17;;;11.63;;
69789;SDS011;57064;52.046;4.800;2023-07-28T05:20:53;34.55;;;12.45;;
69789;SDS011;57064;52.046;4.800;2023-07-28T05:23:19;31.33;;;12.38;;
69789;SDS011;57064;52.046;4.800;2023-07-28T05:25:46;27.45;;;11.27;;
69789;SDS011;57064;52.046;4.800;2023-07-28T05:28:12;25.33;;;11.57;;
69789;SDS011;57064;52.046;4.800;2023-07-28T05:30:38;22.75;;;11.43;;
69789;SDS011;57064;52.046;4.800;2023-07-28T05:33:04;26.90;;;11.70;;
69789;SDS011;57064;52.046;4.800;2023-07-28T05:35:30;30.33;;;11.27;;
69789;SDS011;57064;52.046;4.800;2023-07-28T05:37:56;25.05;;;11.75;;
69789;SDS011;57064;52.046;4.800;2023-07-28T05:40:22;34.30;;;11.80;;
69789;SDS011;57064;52.046;4.800;2023-07-28T05:42:48;26.38;;;10.60;;
69789;SDS011;57064;52.046;4.800;2023-07-28T05:45:14;27.90;;;11.15;;
69789;SDS011;57064;52.046;4.800;2023-07-28T05:47:40;26.38;;;10.65;;
69789;SDS011;57064;52.046;4.800;2023-07-28T05:50:09;29.35;;;11.35;;
69789;SDS011;57064;52.046;4.800;2023-07-28T05:52:36;23.30;;;9.90;;
69789;SDS011;57064;52.046;4.800;2023-07-28T05:55:02;22.13;;;11.15;;
69789;SDS011;57064;52.046;4.800;2023-07-28T05:57:28;21.92;;;11.75;;
69789;SDS011;57064;52.046;4.800;2023-07-28T05:59:54;27.38;;;11.40;;
69789;SDS011;57064;52.046;4.800;2023-07-28T06:02:20;23.75;;;11.05;;
69789;SDS011;57064;52.046;4.800;2023-07-28T06:04:47;24.08;;;10.93;;
69789;SDS011;57064;52.046;4.800;2023-07-28T06:07:13;26.92;;;12.10;;
69789;SDS011;57064;52.046;4.800;2023-07-28T06:09:39;28.40;;;11.38;;
69789;SDS011;57064;52.046;4.800;2023-07-28T06:12:05;22.20;;;12.20;;
69789;SDS011;57064;52.046;4.800;2023-07-28T06:14:31;22.35;;;10.48;;
69789;SDS011;57064;52.046;4.800;2023-07-28T06:16:57;25.33;;;10.50;;
69789;SDS011;57064;52.046;4.800;2023-07-28T06:19:23;18.83;;;9.82;;
69789;SDS011;57064;52.046;4.800;2023-07-28T06:21:50;22.70;;;12.13;;
69789;SDS011;57064;52.046;4.800;2023-07-28T06:24:16;17.17;;;9.88;;
69789;SDS011;57064;52.046;4.800;2023-07-28T06:26:42;17.88;;;9.10;;
69789;SDS011;57064;52.046;4.800;2023-07-28T06:29:08;16.92;;;9.68;;
69789;SDS011;57064;52.046;4.800;2023-07-28T06:31:35;21.25;;;10.52;;
69789;SDS011;57064;52.046;4.800;2023-07-28T06:34:01;17.52;;;10.05;;
69789;SDS011;57064;52.046;4.800;2023-07-28T06:36:27;13.77;;;9.25;;
69789;SDS011;57064;52.046;4.800;2023-07-28T06:38:54;14.32;;;8.10;;
69789;SDS011;57064;52.046;4.800;2023-07-28T06:41:20;13.20;;;7.07;;
69789;SDS011;57064;52.046;4.800;2023-07-28T06:43:47;12.95;;;7.75;;
69789;SDS011;57064;52.046;4.800;2023-07-28T06:46:16;10.80;;;6.05;;
69789;SDS011;57064;52.046;4.800;2023-07-28T06:48:42;12.43;;;6.40;;
69789;SDS011;57064;52.046;4.800;2023-07-28T06:51:08;16.48;;;7.07;;
69789;SDS011;57064;52.046;4.800;2023-07-28T06:53:34;10.35;;;6.13;;
69789;SDS011;57064;52.046;4.800;2023-07-28T06:56:00;11.35;;;6.07;;
69789;SDS011;57064;52.046;4.800;2023-07-28T06:58:26;10.95;;;6.18;;
69789;SDS011;57064;52.046;4.800;2023-07-28T07:00:52;12.25;;;6.07;;
69789;SDS011;57064;52.046;4.800;2023-07-28T07:03:23;10.95;;;5.63;;
69789;SDS011;57064;52.046;4.800;2023-07-28T07:05:49;10.88;;;5.70;;
69789;SDS011;57064;52.046;4.800;2023-07-28T07:08:16;12.52;;;5.80;;
69789;SDS011;57064;52.046;4.800;2023-07-28T07:10:49;10.85;;;5.55;;
69789;SDS011;57064;52.046;4.800;2023-07-28T07:13:16;7.25;;;4.72;;
69789;SDS011;57064;52.046;4.800;2023-07-28T07:15:42;11.35;;;6.63;;
69789;SDS011;57064;52.046;4.800;2023-07-28T07:18:09;12.55;;;6.38;;
69789;SDS011;57064;52.046;4.800;2023-07-28T07:20:36;9.60;;;5.95;;
69789;SDS011;57064;52.046;4.800;2023-07-28T07:23:03;10.48;;;6.40;;
69789;SDS011;57064;52.046;4.800;2023-07-28T07:25:29;12.45;;;7.35;;
69789;SDS011;57064;52.046;4.800;2023-07-28T07:27:55;11.02;;;7.15;;
69789;SDS011;57064;52.046;4.800;2023-07-28T07:30:22;14.30;;;7.53;;
69789;SDS011;57064;52.046;4.800;2023-07-28T07:32:48;12.63;;;7.70;;
69789;SDS011;57064;52.046;4.800;2023-07-28T07:35:15;11.02;;;6.82;;
69789;SDS011;57064;52.046;4.800;2023-07-28T07:37:41;11.80;;;7.10;;
69789;SDS011;57064;52.046;4.800;2023-07-28T07:40:08;12.68;;;6.00;;
69789;SDS011;57064;52.046;4.800;2023-07-28T07:42:46;10.25;;;6.47;;
69789;SDS011;57064;52.046;4.800;2023-07-28T07:45:13;11.52;;;7.13;;
69789;SDS011;57064;52.046;4.800;2023-07-28T07:47:40;10.10;;;6.53;;
69789;SDS011;57064;52.046;4.800;2023-07-28T07:50:08;10.70;;;6.85;;
69789;SDS011;57064;52.046;4.800;2023-07-28T07:52:35;12.25;;;7.25;;
69789;SDS011;57064;52.046;4.800;2023-07-28T07:55:02;13.60;;;7.03;;
69789;SDS011;57064;52.046;4.800;2023-07-28T07:57:29;9.75;;;6.40;;
69789;SDS011;57064;52.046;4.800;2023-07-28T07:59:57;13.85;;;6.88;;
69789;SDS011;57064;52.046;4.800;2023-07-28T08:02:24;13.60;;;6.93;;
69789;SDS011;57064;52.046;4.800;2023-07-28T08:04:51;10.50;;;6.43;;
69789;SDS011;57064;52.046;4.800;2023-07-28T08:07:19;11.20;;;7.07;;
69789;SDS011;57064;52.046;4.800;2023-07-28T08:09:45;12.15;;;6.00;;
69789;SDS011;57064;52.046;4.800;2023-07-28T08:12:12;15.40;;;7.07;;
69789;SDS011;57064;52.046;4.800;2023-07-28T08:14:39;14.98;;;6.90;;
69789;SDS011;57064;52.046;4.800;2023-07-28T08:17:05;16.75;;;6.10;;
69789;SDS011;57064;52.046;4.800;2023-07-28T08:19:33;11.23;;;6.15;;
69789;SDS011;57064;52.046;4.800;2023-07-28T08:22:00;10.10;;;6.32;;
69789;SDS011;57064;52.046;4.800;2023-07-28T08:24:31;14.85;;;6.55;;
69789;SDS011;57064;52.046;4.800;2023-07-28T08:26:59;13.50;;;6.68;;
69789;SDS011;57064;52.046;4.800;2023-07-28T08:29:25;9.93;;;6.68;;
69789;SDS011;57064;52.046;4.800;2023-07-28T08:31:51;9.38;;;6.35;;
69789;SDS011;57064;52.046;4.800;2023-07-28T08:34:17;8.80;;;5.97;;
69789;SDS011;57064;52.046;4.800;2023-07-28T08:36:43;9.90;;;5.18;;
69789;SDS011;57064;52.046;4.800;2023-07-28T08:39:10;9.52;;;4.80;;
69789;SDS011;57064;52.046;4.800;2023-07-28T08:41:37;13.07;;;5.55;;
69789;SDS011;57064;52.046;4.800;2023-07-28T08:44:03;9.90;;;5.43;;
69789;SDS011;57064;52.046;4.800;2023-07-28T08:46:29;12.55;;;6.03;;
69789;SDS011;57064;52.046;4.800;2023-07-28T08:48:59;7.93;;;5.85;;
69789;SDS011;57064;52.046;4.800;2023-07-28T08:51:26;11.18;;;5.65;;
69789;SDS011;57064;52.046;4.800;2023-07-28T08:53:52;8.65;;;4.93;;
69789;SDS011;57064;52.046;4.800;2023-07-28T08:56:18;10.10;;;5.40;;
69789;SDS011;57064;52.046;4.800;2023-07-28T08:58:45;9.80;;;4.82;;
69789;SDS011;57064;52.046;4.800;2023-07-28T09:01:11;8.40;;;4.43;;
69789;SDS011;57064;52.046;4.800;2023-07-28T09:03:41;8.50;;;5.07;;
69789;SDS011;57064;52.046;4.800;2023-07-28T09:06:08;8.35;;;4.95;;
69789;SDS011;57064;52.046;4.800;2023-07-28T09:08:34;14.75;;;5.50;;
69789;SDS011;57064;52.046;4.800;2023-07-28T09:11:02;10.13;;;5.10;;
69789;SDS011;57064;52.046;4.800;2023-07-28T09:13:40;11.73;;;4.45;;
69789;SDS011;57064;52.046;4.800;2023-07-28T09:16:16;10.50;;;4.80;;
69789;SDS011;57064;52.046;4.800;2023-07-28T09:18:43;8.23;;;4.93;;
69789;SDS011;57064;52.046;4.800;2023-07-28T09:21:15;9.68;;;5.30;;
69789;SDS011;57064;52.046;4.800;2023-07-28T09:23:43;11.15;;;6.30;;
69789;SDS011;57064;52.046;4.800;2023-07-28T09:26:10;11.15;;;5.70;;
69789;SDS011;57064;52.046;4.800;2023-07-28T09:28:37;8.05;;;5.10;;
69789;SDS011;57064;52.046;4.800;2023-07-28T09:31:04;11.30;;;5.55;;
69789;SDS011;57064;52.046;4.800;2023-07-28T09:33:31;10.68;;;5.75;;
69789;SDS011;57064;52.046;4.800;2023-07-28T09:36:08;9.35;;;5.68;;
69789;SDS011;57064;52.046;4.800;2023-07-28T09:38:37;11.10;;;5.70;;
69789;SDS011;57064;52.046;4.800;2023-07-28T09:41:05;8.52;;;5.65;;
69789;SDS011;57064;52.046;4.800;2023-07-28T09:43:34;9.10;;;7.03;;
69789;SDS011;57064;52.046;4.800;2023-07-28T09:46:04;11.35;;;5.82;;
69789;SDS011;57064;52.046;4.800;2023-07-28T09:48:32;11.60;;;6.43;;
69789;SDS011;57064;52.046;4.800;2023-07-28T09:51:10;9.38;;;5.75;;
69789;SDS011;57064;52.046;4.800;2023-07-28T09:53:49;10.00;;;6.43;;
69789;SDS011;57064;52.046;4.800;2023-07-28T09:56:19;10.10;;;5.85;;
69789;SDS011;57064;52.046;4.800;2023-07-28T09:58:50;10.57;;;5.80;;
69789;SDS011;57064;52.046;4.800;2023-07-28T10:01:18;8.37;;;5.53;;
69789;SDS011;57064;52.046;4.800;2023-07-28T10:03:46;8.52;;;5.10;;
69789;SDS011;57064;52.046;4.800;2023-07-28T10:06:13;9.45;;;5.40;;
69789;SDS011;57064;52.046;4.800;2023-07-28T10:08:41;6.72;;;5.40;;
69789;SDS011;57064;52.046;4.800;2023-07-28T10:11:10;7.22;;;4.53;;
69789;SDS011;57064;52.046;4.800;2023-07-28T10:13:40;9.27;;;4.57;;
69789;SDS011;57064;52.046;4.800;2023-07-28T10:16:08;9.30;;;4.90;;
69789;SDS011;57064;52.046;4.800;2023-07-28T10:18:35;6.88;;;4.93;;
69789;SDS011;57064;52.046;4.800;2023-07-28T10:21:05;8.18;;;4.80;;
69789;SDS011;57064;52.046;4.800;2023-07-28T10:23:38;8.75;;;5.38;;
69789;SDS011;57064;52.046;4.800;2023-07-28T10:26:04;6.70;;;4.60;;
69789;SDS011;57064;52.046;4.800;2023-07-28T10:28:38;10.40;;;6.03;;
69789;SDS011;57064;52.046;4.800;2023-07-28T10:31:08;10.48;;;6.20;;
69789;SDS011;57064;52.046;4.800;2023-07-28T10:33:45;9.18;;;4.90;;
69789;SDS011;57064;52.046;4.800;2023-07-28T10:36:13;10.55;;;5.75;;
69789;SDS011;57064;52.046;4.800;2023-07-28T10:39:01;7.90;;;4.50;;
69789;SDS011;57064;52.046;4.800;2023-07-28T10:41:34;9.80;;;4.30;;
69789;SDS011;57064;52.046;4.800;2023-07-28T10:44:00;8.45;;;3.67;;
69789;SDS011;57064;52.046;4.800;2023-07-28T10:46:27;10.57;;;4.43;;
69789;SDS011;57064;52.046;4.800;2023-07-28T10:48:53;8.60;;;4.40;;
69789;SDS011;57064;52.046;4.800;2023-07-28T10:51:23;8.52;;;4.00;;
69789;SDS011;57064;52.046;4.800;2023-07-28T10:53:56;8.05;;;4.70;;
69789;SDS011;57064;52.046;4.800;2023-07-28T10:56:23;10.13;;;4.30;;
69789;SDS011;57064;52.046;4.800;2023-07-28T10:58:59;9.50;;;4.68;;
69789;SDS011;57064;52.046;4.800;2023-07-28T11:01:36;6.90;;;4.00;;
69789;SDS011;57064;52.046;4.800;2023-07-28T11:06:51;7.65;;;3.63;;
69789;SDS011;57064;52.046;4.800;2023-07-28T11:09:18;8.23;;;3.85;;
69789;SDS011;57064;52.046;4.800;2023-07-28T11:11:46;6.32;;;4.05;;
69789;SDS011;57064;52.046;4.800;2023-07-28T11:14:14;9.57;;;4.25;;
69789;SDS011;57064;52.046;4.800;2023-07-28T11:16:42;4.78;;;3.40;;
69789;SDS011;57064;52.046;4.800;2023-07-28T11:19:11;7.65;;;3.17;;
69789;SDS011;57064;52.046;4.800;2023-07-28T11:21:39;5.97;;;2.92;;
69789;SDS011;57064;52.046;4.800;2023-07-28T11:24:07;6.93;;;3.35;;
69789;SDS011;57064;52.046;4.800;2023-07-28T11:26:37;7.22;;;3.47;;
69789;SDS011;57064;52.046;4.800;2023-07-28T11:29:04;7.32;;;3.78;;
69789;SDS011;57064;52.046;4.800;2023-07-28T11:31:31;4.70;;;3.70;;
69789;SDS011;57064;52.046;4.800;2023-07-28T11:33:58;6.05;;;3.50;;
69789;SDS011;57064;52.046;4.800;2023-07-28T11:36:28;7.70;;;3.55;;
69789;SDS011;57064;52.046;4.800;2023-07-28T11:38:57;4.97;;;3.22;;
69789;SDS011;57064;52.046;4.800;2023-07-28T11:41:24;7.85;;;3.50;;
69789;SDS011;57064;52.046;4.800;2023-07-28T11:43:52;5.32;;;2.70;;
69789;SDS011;57064;52.046;4.800;2023-07-28T11:46:31;6.60;;;3.08;;
69789;SDS011;57064;52.046;4.800;2023-07-28T11:49:13;5.75;;;2.90;;
69789;SDS011;57064;52.046;4.800;2023-07-28T11:51:42;9.82;;;3.10;;
69789;SDS011;57064;52.046;4.800;2023-07-28T11:54:10;4.68;;;2.20;;
69789;SDS011;57064;52.046;4.800;2023-07-28T11:56:45;6.07;;;2.90;;
69789;SDS011;57064;52.046;4.800;2023-07-28T11:59:11;5.25;;;3.13;;
69789;SDS011;57064;52.046;4.800;2023-07-28T12:01:57;5.05;;;2.88;;
69789;SDS011;57064;52.046;4.800;2023-07-28T12:04:27;3.65;;;2.33;;
69789;SDS011;57064;52.046;4.800;2023-07-28T12:09:46;7.97;;;3.00;;
69789;SDS011;57064;52.046;4.800;2023-07-28T12:12:18;6.25;;;2.60;;
69789;SDS011;57064;52.046;4.800;2023-07-28T12:14:45;6.03;;;2.28;;
69789;SDS011;57064;52.046;4.800;2023-07-28T12:17:12;4.63;;;2.53;;
69789;SDS011;57064;52.046;4.800;2023-07-28T12:20:02;6.18;;;2.70;;
69789;SDS011;57064;52.046;4.800;2023-07-28T12:22:36;9.30;;;3.25;;
69789;SDS011;57064;52.046;4.800;2023-07-28T12:25:03;4.65;;;2.50;;
69789;SDS011;57064;52.046;4.800;2023-07-28T12:27:30;5.97;;;2.90;;
69789;SDS011;57064;52.046;4.800;2023-07-28T12:29:56;8.35;;;3.00;;
69789;SDS011;57064;52.046;4.800;2023-07-28T12:32:22;6.13;;;2.88;;
69789;SDS011;57064;52.046;4.800;2023-07-28T12:34:49;5.35;;;2.97;;
69789;SDS011;57064;52.046;4.800;2023-07-28T12:37:15;5.47;;;3.20;;
69789;SDS011;57064;52.046;4.800;2023-07-28T12:39:42;7.22;;;3.35;;
69789;SDS011;57064;52.046;4.800;2023-07-28T12:42:10;5.90;;;3.65;;
69789;SDS011;57064;52.046;4.800;2023-07-28T12:44:37;5.75;;;3.92;;
69789;SDS011;57064;52.046;4.800;2023-07-28T12:47:04;9.63;;;3.92;;
69789;SDS011;57064;52.046;4.800;2023-07-28T12:49:31;6.82;;;3.92;;
69789;SDS011;57064;52.046;4.800;2023-07-28T12:52:00;6.78;;;3.92;;
69789;SDS011;57064;52.046;4.800;2023-07-28T12:54:30;13.48;;;5.43;;
69789;SDS011;57064;52.046;4.800;2023-07-28T12:56:56;8.15;;;4.50;;
69789;SDS011;57064;52.046;4.800;2023-07-28T12:59:22;10.25;;;4.47;;
69789;SDS011;57064;52.046;4.800;2023-07-28T13:01:48;7.35;;;4.53;;
69789;SDS011;57064;52.046;4.800;2023-07-28T13:04:14;7.90;;;4.68;;
69789;SDS011;57064;52.046;4.800;2023-07-28T13:06:41;8.98;;;4.90;;
69789;SDS011;57064;52.046;4.800;2023-07-28T13:09:07;9.25;;;4.50;;
69789;SDS011;57064;52.046;4.800;2023-07-28T13:11:34;7.57;;;4.78;;
69789;SDS011;57064;52.046;4.800;2023-07-28T13:14:00;12.13;;;5.07;;
69789;SDS011;57064;52.046;4.800;2023-07-28T13:16:27;9.25;;;4.90;;
69789;SDS011;57064;52.046;4.800;2023-07-28T13:18:53;10.57;;;5.65;;
69789;SDS011;57064;52.046;4.800;2023-07-28T13:21:20;12.20;;;6.85;;
69789;SDS011;57064;52.046;4.800;2023-07-28T13:23:46;8.65;;;6.65;;
69789;SDS011;57064;52.046;4.800;2023-07-28T13:26:12;12.68;;;7.00;;
69789;SDS011;57064;52.046;4.800;2023-07-28T13:28:38;14.00;;;7.85;;
69789;SDS011;57064;52.046;4.800;2023-07-28T13:31:15;13.07;;;7.78;;
69789;SDS011;57064;52.046;4.800;2023-07-28T13:33:42;14.05;;;7.70;;
69789;SDS011;57064;52.046;4.800;2023-07-28T13:36:09;11.63;;;7.95;;
69789;SDS011;57064;52.046;4.800;2023-07-28T13:38:36;12.55;;;8.60;;
69789;SDS011;57064;52.046;4.800;2023-07-28T13:41:04;10.95;;;7.97;;
69789;SDS011;57064;52.046;4.800;2023-07-28T13:43:31;12.50;;;8.35;;
69789;SDS011;57064;52.046;4.800;2023-07-28T13:45:59;12.30;;;8.40;;
69789;SDS011;57064;52.046;4.800;2023-07-28T13:48:25;11.90;;;8.07;;
69789;SDS011;57064;52.046;4.800;2023-07-28T13:50:51;12.85;;;7.22;;
69789;SDS011;57064;52.046;4.800;2023-07-28T13:53:17;12.60;;;7.18;;
69789;SDS011;57064;52.046;4.800;2023-07-28T13:55:44;12.60;;;7.85;;
69789;SDS011;57064;52.046;4.800;2023-07-28T13:58:10;11.27;;;7.43;;
69789;SDS011;57064;52.046;4.800;2023-07-28T14:00:36;9.95;;;6.32;;
69789;SDS011;57064;52.046;4.800;2023-07-28T14:03:03;9.35;;;6.15;;
69789;SDS011;57064;52.046;4.800;2023-07-28T14:05:29;12.18;;;7.60;;
69789;SDS011;57064;52.046;4.800;2023-07-28T14:07:55;12.90;;;8.27;;
69789;SDS011;57064;52.046;4.800;2023-07-28T14:10:22;11.15;;;8.02;;
69789;SDS011;57064;52.046;4.800;2023-07-28T14:12:49;10.95;;;7.97;;
69789;SDS011;57064;52.046;4.800;2023-07-28T14:15:15;13.73;;;8.77;;
69789;SDS011;57064;52.046;4.800;2023-07-28T14:17:42;14.15;;;9.80;;
69789;SDS011;57064;52.046;4.800;2023-07-28T14:20:08;15.13;;;9.98;;
69789;SDS011;57064;52.046;4.800;2023-07-28T14:22:34;15.20;;;9.40;;
69789;SDS011;57064;52.046;4.800;2023-07-28T14:25:02;15.45;;;10.07;;
69789;SDS011;57064;52.046;4.800;2023-07-28T14:27:28;14.57;;;9.60;;
69789;SDS011;57064;52.046;4.800;2023-07-28T14:29:54;17.05;;;9.77;;
69789;SDS011;57064;52.046;4.800;2023-07-28T14:32:20;15.38;;;8.40;;
69789;SDS011;57064;52.046;4.800;2023-07-28T14:34:46;14.80;;;7.88;;
69789;SDS011;57064;52.046;4.800;2023-07-28T14:37:13;14.98;;;9.23;;
69789;SDS011;57064;52.046;4.800;2023-07-28T14:39:39;14.88;;;7.95;;
69789;SDS011;57064;52.046;4.800;2023-07-28T14:42:05;15.10;;;9.15;;
69789;SDS011;57064;52.046;4.800;2023-07-28T14:44:31;11.63;;;7.70;;